Time;durP1;ratioP1;P1;durP2;ratioP2;P2;SDS_P1;SDS_P2;PMS_P1;PMS_P2;Temp;Humidity;BMP_temperature;BMP_pressure;BME280_temperature;BME280_humidity;BME280_pressure;Samples;Min_cycle;Max_cycle;Signal;HPM_P1;HPM_P2
2021/09/22 00:13:08;;;;;;;;;;;;;;;;;;;;;
2021/09/22 00:15:34;;;;;;;0.98;0.88;;;;;;;13.63;60.34;101774.94;4926107;29;20111;-73
2021/09/22 00:18:06;;;;;;;0.47;0.45;;;;;;;13.57;60.42;101758.34;4925681;29;20071;-78
2021/09/22 00:20:32;;;;;;;0.50;0.50;;;;;;;13.62;60.27;101776.81;4927056;29;20028;-70
2021/09/22 00:22:58;;;;;;;0.35;0.30;;;;;;;13.58;60.40;101770.16;4907981;29;20028;-72
2021/09/22 00:25:24;;;;;;;0.20;0.20;;;;;;;13.55;59.84;101766.03;4925770;29;20336;-71
2021/09/22 00:27:51;;;;;;;0.30;0.20;;;;;;;13.53;59.67;101767.38;4933522;29;20036;-72
2021/09/22 00:30:17;;;;;;;0.30;0.30;;;;;;;13.53;60.15;101772.88;4926957;29;20040;-73
2021/09/22 00:32:46;;;;;;;0.40;0.40;;;;;;;13.54;60.19;101775.34;4926837;29;20048;-74
2021/09/22 00:35:12;;;;;;;0.20;0.13;;;;;;;13.56;60.11;101778.66;4923035;29;20127;-73
2021/09/22 00:37:37;;;;;;;0.20;0.17;;;;;;;13.59;59.61;101771.84;4923453;29;20537;-73
2021/09/22 00:40:04;;;;;;;0.20;0.20;;;;;;;13.58;60.18;101764.66;4940440;29;20124;-75
2021/09/22 00:42:29;;;;;;;0.40;0.30;;;;;;;13.56;59.93;101767.69;4923208;29;20028;-72
2021/09/22 00:45:05;;;;;;;0.50;0.28;;;;;;;13.55;60.28;101771.53;4920501;29;20063;-72
2021/09/22 00:47:30;;;;;;;;;;;;;;;13.55;59.78;101770.69;4925294;29;20097;-72
2021/09/22 00:49:56;;;;;;;2.40;0.80;;;;;;;13.50;61.19;101774.19;4921761;29;20027;-76
2021/09/22 00:52:23;;;;;;;0.85;0.85;;;;;;;13.48;61.66;101764.53;4931042;29;20056;-74
2021/09/22 00:54:49;;;;;;;3.95;0.75;;;;;;;13.48;62.26;101767.28;4910004;29;20033;-74
2021/09/22 00:57:16;;;;;;;2.42;0.95;;;;;;;13.41;62.45;101760.06;4932545;29;20083;-75
2021/09/22 00:59:41;;;;;;;2.25;1.30;;;;;;;13.40;63.71;101766.66;4932146;29;20039;-74
2021/09/22 01:02:07;;;;;;;1.60;1.10;;;;;;;13.40;63.26;101758.41;4943034;29;20466;-75
2021/09/22 01:04:34;;;;;;;1.10;1.00;;;;;;;13.42;64.01;101755.41;4932785;29;20036;-74
2021/09/22 01:07:05;;;;;;;0.95;0.70;;;;;;;13.39;63.16;101750.38;4929452;29;20347;-75
2021/09/22 01:09:35;;;;;;;0.57;0.40;;;;;;;13.41;63.30;101753.75;4928675;29;20032;-74
2021/09/22 01:12:12;;;;;;;0.28;0.28;;;;;;;13.40;62.64;101747.41;4915054;29;20035;-75
2021/09/22 01:14:37;;;;;;;0.30;0.30;;;;;;;13.43;62.16;101752.41;4916000;29;20141;-75
2021/09/22 01:17:03;;;;;;;0.30;0.30;;;;;;;13.42;62.34;101750.72;4931394;29;20032;-75
2021/09/22 01:19:30;;;;;;;0.60;0.20;;;;;;;13.42;62.11;101749.91;4928769;29;20024;-74
2021/09/22 01:22:02;;;;;;;0.10;0.10;;;;;;;13.37;62.05;101747.06;4913568;29;20040;-74
2021/09/22 01:24:31;;;;;;;0.10;0.10;;;;;;;13.35;61.46;101752.81;4930561;29;20036;-74
2021/09/22 01:27:10;;;;;;;0.20;0.10;;;;;;;13.32;62.05;101747.81;4933529;29;20036;-76
2021/09/22 01:29:40;;;;;;;0.20;0.20;;;;;;;13.31;61.26;101754.38;4915771;29;20040;-74
2021/09/22 01:32:06;;;;;;;0.30;0.30;;;;;;;13.30;61.67;101754.63;4928372;29;20028;-75
2021/09/22 01:35:10;;;;;;;0.10;0.10;;;;;;;13.32;60.94;101755.22;4928283;29;20051;-73
2021/09/22 01:49:39;;;;;;;;;;;;;;;;;;;;;
2021/09/22 01:55:32;;;;;;;0.00;0.00;;;;;;;13.04;61.01;101743.25;4934283;28;20048;-74
2021/09/22 01:58:40;;;;;;;0.20;0.10;;;;;;;12.87;60.77;101726.78;4931795;29;20040;-74
2021/09/22 02:05:58;;;;;;;;;;;;;;;;;;;;;
2021/09/22 02:08:34;;;;;;;;;;;;;;;;;;;;;
2021/09/22 02:14:40;;;;;;;0.10;0.10;;;;;;;12.73;61.05;101726.28;4966822;28;20042;-72
2021/09/22 02:17:26;;;;;;;0.10;0.10;;;;;;;12.59;60.80;101714.81;4990663;28;20038;-72
2021/09/22 02:19:52;;;;;;;0.20;0.20;;;;;;;12.65;61.25;101730.28;4988733;28;20065;-74
2021/09/22 02:22:18;;;;;;;0.40;0.30;;;;;;;12.58;61.24;101713.13;4971952;28;20026;-74
2021/09/22 02:24:44;;;;;;;0.30;0.30;;;;;;;12.57;61.49;101711.47;5005086;28;20057;-73
2021/09/22 02:27:15;;;;;;;0.20;0.20;;;;;;;12.59;61.76;101714.81;4950981;28;20034;-75
2021/09/22 02:29:42;;;;;;;0.20;0.20;;;;;;;12.58;61.87;101713.94;4977279;28;20049;-74
2021/09/22 02:32:09;;;;;;;0.13;0.10;;;;;;;12.58;61.28;101710.38;4988446;28;21266;-73
2021/09/22 02:34:35;;;;;;;0.10;0.10;;;;;;;12.57;61.79;101697.72;4996593;28;20034;-74
2021/09/22 02:37:01;;;;;;;0.10;0.10;;;;;;;12.53;61.45;101688.38;4988649;28;20459;-75
2021/09/22 02:39:26;;;;;;;0.60;0.20;;;;;;;12.52;61.58;101692.19;4997084;28;20053;-73
2021/09/22 02:41:53;;;;;;;0.45;0.20;;;;;;;12.54;61.73;101695.50;4985100;28;20026;-74
2021/09/22 02:44:19;;;;;;;0.15;0.10;;;;;;;12.53;61.49;101699.34;4999305;28;20397;-75
2021/09/22 02:46:45;;;;;;;0.22;0.20;;;;;;;12.49;61.87;101696.25;4985118;28;20054;-75
2021/09/22 02:49:10;;;;;;;1.08;0.10;;;;;;;12.48;61.22;101696.50;4984037;28;20042;-74
2021/09/22 02:51:36;;;;;;;0.22;0.10;;;;;;;12.44;61.30;101684.34;5000545;28;20145;-74
2021/09/22 02:54:02;;;;;;;0.10;0.10;;;;;;;12.45;61.73;101680.53;4983577;28;20042;-74
2021/09/22 02:56:28;;;;;;;0.10;0.10;;;;;;;12.45;61.32;101680.53;4976847;28;20682;-75
2021/09/22 02:58:53;;;;;;;0.20;0.10;;;;;;;12.43;61.49;101671.72;4984195;28;20034;-73
2021/09/22 03:01:19;;;;;;;0.17;0.17;;;;;;;12.39;61.43;101677.69;4980742;28;20038;-72
2021/09/22 03:03:44;;;;;;;0.20;0.20;;;;;;;12.36;61.69;101671.88;4993708;28;20038;-71
2021/09/22 03:06:10;;;;;;;0.22;0.10;;;;;;;12.34;61.93;101674.03;4993568;28;20030;-72
2021/09/22 03:08:38;;;;;;;0.32;0.32;;;;;;;12.32;61.50;101682.50;4981836;28;20031;-72
2021/09/22 03:11:06;;;;;;;0.00;0.00;;;;;;;12.32;61.81;101685.25;4999931;28;20368;-71
2021/09/22 03:13:33;;;;;;;0.17;0.10;;;;;;;12.31;61.57;101683.59;4976369;28;20372;-73
2021/09/22 03:15:58;;;;;;;0.25;0.25;;;;;;;12.26;61.60;101678.00;5002202;28;20065;-73
2021/09/22 03:18:24;;;;;;;0.25;0.25;;;;;;;12.24;61.90;101674.69;4977498;28;20456;-72
2021/09/22 03:20:50;;;;;;;0.25;0.25;;;;;;;12.23;61.97;101679.31;4993957;28;20027;-73
2021/09/22 03:23:15;;;;;;;0.30;0.20;;;;;;;12.21;61.94;101680.66;5000818;28;20057;-72
2021/09/22 03:25:41;;;;;;;0.10;0.10;;;;;;;12.14;62.09;101674.50;4964753;28;20088;-72
2021/09/22 03:28:06;;;;;;;0.20;0.20;;;;;;;12.13;62.44;101689.28;4977999;28;20034;-74
2021/09/22 03:30:32;;;;;;;0.30;0.25;;;;;;;12.12;61.92;101682.13;4967052;28;20499;-73
2021/09/22 03:32:57;;;;;;;0.20;0.20;;;;;;;12.08;61.56;101670.00;4985678;28;20038;-73
2021/09/22 03:35:23;;;;;;;0.20;0.20;;;;;;;12.08;61.97;101684.53;4961874;28;20095;-72
2021/09/22 03:37:48;;;;;;;0.20;0.20;;;;;;;12.05;61.78;101677.63;4984226;28;20027;-73
2021/09/22 03:40:14;;;;;;;0.10;0.10;;;;;;;12.03;61.96;101674.31;4978603;28;20097;-73
2021/09/22 03:42:39;;;;;;;0.08;0.08;;;;;;;12.03;62.01;101679.81;5004575;28;20045;-73
2021/09/22 03:45:05;;;;;;;0.13;0.10;;;;;;;12.00;62.05;101674.81;4981045;28;20050;-74
2021/09/22 03:47:31;;;;;;;0.57;0.40;;;;;;;11.94;62.34;101670.28;4997479;28;20109;-73
2021/09/22 03:49:57;;;;;;;0.45;0.45;;;;;;;11.88;62.37;101677.56;4964503;28;20037;-72
2021/09/22 03:52:22;;;;;;;0.60;0.60;;;;;;;11.85;62.90;101677.22;4990157;28;20054;-73
2021/09/22 03:54:47;;;;;;;0.60;0.60;;;;;;;11.77;63.38;101680.31;5000280;28;20057;-73
2021/09/22 03:57:13;;;;;;;0.50;0.50;;;;;;;11.73;63.35;101677.25;4979551;28;20057;-73
2021/09/22 03:59:39;;;;;;;0.40;0.40;;;;;;;11.67;63.62;101670.84;4998512;28;20385;-75
2021/09/22 04:02:04;;;;;;;0.55;0.50;;;;;;;11.65;63.10;101670.25;4995087;28;20476;-75
2021/09/22 04:04:30;;;;;;;2.15;0.43;;;;;;;11.64;63.12;101671.31;4985977;28;20038;-75
2021/09/22 04:06:55;;;;;;;0.28;0.20;;;;;;;11.62;63.39;101667.16;4970860;28;20036;-75
2021/09/22 04:09:24;;;;;;;0.30;0.30;;;;;;;11.62;63.28;101668.00;4972172;28;20046;-74
2021/09/22 04:11:52;;;;;;;0.20;0.20;;;;;;;11.70;63.42;101675.00;4987133;28;20053;-75
2021/09/22 04:14:23;;;;;;;1.10;0.70;;;;;;;11.63;63.27;101658.69;5002208;28;20085;-74
2021/09/22 04:16:48;;;;;;;1.90;1.80;;;;;;;11.74;64.49;101680.81;5000232;28;20037;-74
2021/09/22 04:19:14;;;;;;;3.80;1.75;;;;;;;11.74;64.26;101680.81;5004695;28;20476;-74
2021/09/22 04:21:39;;;;;;;2.85;1.60;;;;;;;11.73;64.55;101673.69;4999223;28;20034;-73
2021/09/22 04:24:05;;;;;;;2.03;0.98;;;;;;;11.77;64.76;101677.59;4954008;28;20461;-74
2021/09/22 04:26:31;;;;;;;3.58;0.95;;;;;;;11.79;64.90;101683.66;4985776;28;20054;-73
2021/09/22 04:28:57;;;;;;;1.05;0.82;;;;;;;11.81;64.45;101681.50;5002947;28;20038;-74
2021/09/22 04:31:23;;;;;;;0.52;0.40;;;;;;;11.82;65.01;101677.69;4999080;28;20023;-73
2021/09/22 04:33:49;;;;;;;0.98;0.98;;;;;;;11.84;64.68;101683.75;5002354;28;20026;-74
2021/09/22 04:36:14;;;;;;;0.60;0.60;;;;;;;11.85;64.99;101677.22;4996735;28;20356;-74
2021/09/22 04:38:43;;;;;;;0.73;0.52;;;;;;;11.85;64.52;101678.03;4987307;28;20038;-72
2021/09/22 04:41:09;;;;;;;0.43;0.43;;;;;;;11.84;64.75;101670.06;4993367;28;20054;-72
2021/09/22 04:43:34;;;;;;;0.32;0.22;;;;;;;11.86;64.70;101670.66;4966405;28;20065;-72
2021/09/22 04:46:00;;;;;;;0.32;0.32;;;;;;;11.88;65.11;101668.50;4969697;28;20065;-72
2021/09/22 04:48:25;;;;;;;0.47;0.40;;;;;;;11.90;65.06;101671.84;4979110;28;20092;-73
2021/09/22 04:50:51;;;;;;;0.10;0.10;;;;;;;11.92;64.40;101672.41;5000001;28;20026;-74
2021/09/22 04:53:16;;;;;;;0.28;0.20;;;;;;;11.91;64.69;101670.75;4956621;28;20057;-75
2021/09/22 04:55:42;;;;;;;0.25;0.20;;;;;;;11.93;64.98;101673.22;4976746;28;20030;-74
2021/09/22 04:58:09;;;;;;;0.28;0.28;;;;;;;11.95;64.74;101668.41;4991425;28;20054;-74
2021/09/22 05:00:35;;;;;;;0.10;0.10;;;;;;;11.94;64.88;101661.25;5010333;28;20035;-75
2021/09/22 05:03:02;;;;;;;0.30;0.30;;;;;;;11.95;64.87;101668.41;4987624;28;20081;-75
2021/09/22 05:05:28;;;;;;;0.20;0.20;;;;;;;11.94;64.69;101664.78;4987575;28;20041;-75
2021/09/22 05:07:54;;;;;;;0.40;0.40;;;;;;;11.94;64.88;101663.97;5004118;28;20014;-76
2021/09/22 05:10:20;;;;;;;0.20;0.20;;;;;;;11.96;64.66;101668.16;5003314;28;20030;-77
2021/09/22 05:12:45;;;;;;;0.30;0.30;;;;;;;11.95;64.65;101666.47;5006242;28;20030;-73
2021/09/22 05:15:11;;;;;;;0.20;0.20;;;;;;;11.92;64.53;101655.97;5000706;28;20041;-73
2021/09/22 05:17:37;;;;;;;1.38;0.40;;;;;;;11.90;64.42;101652.66;4997139;28;20408;-75
2021/09/22 05:20:03;;;;;;;0.30;0.30;;;;;;;11.88;64.90;101660.28;5001776;28;20030;-75
2021/09/22 05:22:28;;;;;;;0.50;0.40;;;;;;;11.83;64.82;101652.78;4975259;28;20042;-75
2021/09/22 05:24:54;;;;;;;0.77;0.77;;;;;;;11.81;64.57;101654.94;4994905;28;20034;-74
2021/09/22 05:27:19;;;;;;;0.30;0.30;;;;;;;11.79;65.13;101657.09;4984424;28;20120;-73
2021/09/22 05:29:45;;;;;;;0.95;0.80;;;;;;;11.74;65.13;101658.88;4982670;28;20043;-72
2021/09/22 05:32:10;;;;;;;0.30;0.30;;;;;;;11.72;64.75;101672.00;4977266;28;20430;-71
2021/09/22 05:34:36;;;;;;;0.57;0.57;;;;;;;11.68;64.64;101666.16;4944030;28;20031;-73
2021/09/22 05:37:01;;;;;;;0.40;0.40;;;;;;;11.63;64.90;101663.34;4997682;28;20058;-73
2021/09/22 05:39:27;;;;;;;1.20;0.40;;;;;;;11.61;64.63;101666.34;4984314;28;20026;-75
2021/09/22 05:41:52;;;;;;;0.50;0.50;;;;;;;11.60;65.23;101664.66;4987931;28;20033;-73
2021/09/22 05:44:18;;;;;;;0.80;0.80;;;;;;;11.56;64.94;101668.94;4969154;28;20050;-75
2021/09/22 05:46:43;;;;;;;0.65;0.57;;;;;;;11.56;65.23;101670.88;4969301;28;20087;-74
2021/09/22 05:49:09;;;;;;;1.00;1.00;;;;;;;11.50;65.38;101669.94;4973998;28;20047;-74
2021/09/22 05:51:34;;;;;;;3.40;0.80;;;;;;;11.44;65.23;101660.75;4981216;28;20031;-74
2021/09/22 05:54:00;;;;;;;0.50;0.50;;;;;;;11.42;64.92;101664.81;4992761;28;20032;-72
2021/09/22 05:56:26;;;;;;;0.50;0.50;;;;;;;11.37;65.00;101661.97;4980890;28;20034;-74
2021/09/22 05:58:52;;;;;;;0.40;0.40;;;;;;;11.30;65.04;101671.16;4987081;28;20034;-71
2021/09/22 06:01:17;;;;;;;0.40;0.40;;;;;;;11.26;65.10;101669.97;4979375;28;20035;-74
2021/09/22 06:03:43;;;;;;;0.30;0.30;;;;;;;11.17;65.44;101657.72;4984404;28;20041;-74
2021/09/22 06:06:17;;;;;;;0.30;0.25;;;;;;;11.17;65.04;101660.47;4982012;28;20019;-75
2021/09/22 06:08:43;;;;;;;0.63;0.63;;;;;;;11.14;65.31;101663.66;4981189;28;20023;-73
2021/09/22 06:11:10;;;;;;;0.70;0.70;;;;;;;11.06;65.33;101666.78;4980736;28;20091;-75
2021/09/22 06:13:36;;;;;;;0.45;0.45;;;;;;;10.99;65.38;101659.53;4967415;28;21167;-75
2021/09/22 06:16:09;;;;;;;0.40;0.40;;;;;;;11.02;65.26;101651.91;4978120;28;20019;-74
2021/09/22 06:18:39;;;;;;;0.30;0.30;;;;;;;11.07;65.11;101666.53;4984616;28;20045;-73
2021/09/22 06:21:05;;;;;;;0.20;0.20;;;;;;;11.03;64.66;101661.78;4959618;28;20026;-74
2021/09/22 06:23:31;;;;;;;0.30;0.30;;;;;;;11.06;65.03;101664.88;4974377;28;20027;-74
2021/09/22 06:25:56;;;;;;;0.40;0.40;;;;;;;11.07;64.78;101662.94;4980139;28;20056;-74
2021/09/22 06:28:22;;;;;;;0.40;0.40;;;;;;;11.05;64.96;101665.09;5007978;28;20031;-74
2021/09/22 06:30:47;;;;;;;0.68;0.68;;;;;;;11.13;64.77;101670.22;4977384;28;20049;-73
2021/09/22 06:33:13;;;;;;;0.20;0.20;;;;;;;11.13;64.91;101665.59;4979637;28;20029;-74
2021/09/22 06:35:38;;;;;;;0.35;0.35;;;;;;;11.15;64.62;101668.06;4979343;28;20045;-74
2021/09/22 06:38:04;;;;;;;0.43;0.40;;;;;;;11.23;64.73;101681.41;4978755;28;20049;-74
2021/09/22 06:40:30;;;;;;;0.30;0.30;;;;;;;11.31;64.70;101677.47;4980175;28;20269;-75
2021/09/22 06:42:55;;;;;;;0.20;0.20;;;;;;;11.38;64.45;101677.34;4971859;28;20459;-74
2021/09/22 06:45:21;;;;;;;0.10;0.10;;;;;;;11.49;64.44;101681.94;4963967;28;20030;-74
2021/09/22 06:47:48;;;;;;;0.30;0.30;;;;;;;11.73;64.33;101684.66;4972443;28;20134;-75
2021/09/22 06:50:13;;;;;;;0.30;0.30;;;;;;;11.87;64.19;101689.59;4966150;28;20041;-75
2021/09/22 06:52:41;;;;;;;0.30;0.30;;;;;;;12.02;64.59;101672.63;4978123;28;20027;-74
2021/09/22 06:55:07;;;;;;;1.85;0.22;;;;;;;12.23;63.73;101690.28;4979674;28;20116;-74
2021/09/22 06:57:33;;;;;;;0.20;0.20;;;;;;;12.42;64.14;101689.25;4963002;28;20054;-75
2021/09/22 06:59:59;;;;;;;0.20;0.10;;;;;;;12.63;63.80;101694.03;4961538;28;20058;-74
2021/09/22 07:02:25;;;;;;;0.20;0.20;;;;;;;12.81;63.73;101683.88;4982291;28;20062;-75
2021/09/22 07:04:54;;;;;;;0.40;0.30;;;;;;;12.99;63.70;101686.34;4979816;28;20093;-77
2021/09/22 07:07:24;;;;;;;0.55;0.40;;;;;;;13.08;63.58;101679.34;4978774;28;20045;-73
2021/09/22 07:09:54;;;;;;;0.50;0.50;;;;;;;13.19;63.12;101691.31;4979370;28;20105;-71
2021/09/22 07:12:20;;;;;;;2.20;1.30;;;;;;;13.31;63.68;101704.94;4978663;28;20110;-72
2021/09/22 07:14:45;;;;;;;1.95;1.30;;;;;;;13.42;63.76;101711.44;4974474;28;20035;-75
2021/09/22 07:17:11;;;;;;;3.28;1.90;;;;;;;13.42;64.07;101698.53;4966241;28;20033;-75
2021/09/22 07:19:36;;;;;;;1.20;1.10;;;;;;;13.38;64.21;101691.88;4975120;28;20038;-75
2021/09/22 07:22:02;;;;;;;1.45;1.35;;;;;;;13.34;64.75;101687.97;4991233;28;21105;-75
2021/09/22 07:24:27;;;;;;;1.63;1.52;;;;;;;13.30;64.97;101686.78;4978913;28;20034;-74
2021/09/22 07:26:53;;;;;;;0.70;0.70;;;;;;;13.41;65.16;101690.53;4982238;28;20031;-73
2021/09/22 07:29:27;;;;;;;0.93;0.93;;;;;;;13.55;64.51;101689.09;4974566;28;20054;-75
2021/09/22 07:31:53;;;;;;;0.80;0.80;;;;;;;13.76;64.95;101700.34;4978982;28;20023;-73
2021/09/22 07:34:18;;;;;;;1.00;1.00;;;;;;;13.93;64.59;101705.72;4962764;28;20054;-74
2021/09/22 07:36:44;;;;;;;0.50;0.50;;;;;;;14.11;64.34;101705.41;4965999;28;20102;-74
2021/09/22 07:39:10;;;;;;;0.68;0.40;;;;;;;14.25;64.52;101691.22;4980957;28;20038;-74
2021/09/22 07:41:46;;;;;;;0.60;0.60;;;;;;;14.53;64.14;101706.66;4969439;28;20039;-73
2021/09/22 07:44:32;;;;;;;0.82;0.82;;;;;;;14.66;64.33;101702.66;4988164;28;20041;-74
2021/09/22 07:47:16;;;;;;;1.38;1.00;;;;;;;14.83;64.06;101714.38;4993867;28;20117;-74
2021/09/22 07:50:31;;;;;;;1.40;1.38;;;;;;;15.04;63.95;101720.03;4990402;28;20033;-73
2021/09/22 07:53:10;;;;;;;0.30;0.30;;;;;;;15.32;63.79;101721.59;4977701;28;20579;-74
2021/09/22 07:56:08;;;;;;;;;;;;;;;;;;;;;
2021/09/22 07:58:41;;;;;;;0.30;0.30;;;;;;;16.12;63.08;101733.53;5003139;28;20438;-75
2021/09/22 08:01:19;;;;;;;0.20;0.20;;;;;;;16.55;62.63;101731.41;4964173;28;20041;-75
2021/09/22 08:04:17;;;;;;;;;;;;;;;;;;;;;
2021/09/22 08:06:53;;;;;;;;;;;;;;;;;;;;;
2021/09/22 08:09:19;;;;;;;0.20;0.20;;;;;;;17.68;60.21;101728.53;5004204;28;20109;-74
2021/09/22 08:11:48;;;;;;;0.20;0.20;;;;;;;17.99;59.48;101730.38;5000888;28;20095;-74
2021/09/22 08:15:04;;;;;;;;;;;;;;;;;;;;;
2021/09/22 08:20:53;;;;;;;0.30;0.30;;;;;;;18.93;57.71;101721.97;4996148;28;20038;-75
2021/09/22 08:26:15;;;;;;;;;;;;;;;;;;;;;
2021/09/22 08:28:58;;;;;;;4.40;0.10;;;;;;;19.86;56.55;101723.78;5000006;28;20090;-75
2021/09/22 08:31:24;;;;;;;0.10;0.10;;;;;;;20.23;56.32;101730.47;4956263;28;20086;-74
2021/09/22 08:33:59;;;;;;;;;;;;;;;;;;;;;
2021/09/22 08:39:35;;;;;;;0.37;0.37;;;;;;;20.93;54.41;101731.63;4971527;28;20108;-74
2021/09/22 08:42:05;;;;;;;0.20;0.20;;;;;;;21.26;54.50;101739.91;4972419;28;20031;-74
2021/09/22 08:44:43;;;;;;;;;;;;;;;;;;;;;
2021/09/22 08:47:09;;;;;;;0.40;0.40;;;;;;;22.11;54.06;101743.25;4999181;28;20074;-74
2021/09/22 08:49:35;;;;;;;0.38;0.30;;;;;;;22.66;53.34;101730.28;4984342;28;20365;-74
2021/09/22 08:52:17;;;;;;;;;;;;;;;;;;;;;
2021/09/22 08:54:45;;;;;;;0.90;0.90;;;;;;;23.40;50.49;101728.13;4984737;28;20105;-73
2021/09/22 08:57:54;;;;;;;0.47;0.47;;;;;;;23.59;49.45;101727.88;5004301;28;20042;-74
2021/09/22 09:00:21;;;;;;;0.60;0.60;;;;;;;24.29;49.40;101739.22;4992962;28;20073;-75
2021/09/22 09:02:55;;;;;;;0.30;0.25;;;;;;;24.91;49.94;101726.84;4966001;28;20069;-74
2021/09/22 09:05:31;;;;;;;;;;;;;;;;;;;;;
2021/09/22 09:08:01;;;;;;;0.20;0.20;;;;;;;26.78;48.18;101750.38;4997899;28;20110;-74
2021/09/22 09:10:54;;;;;;;0.52;0.52;;;;;;;27.77;46.35;101733.69;4977830;28;20026;-74
2021/09/22 09:13:22;;;;;;;0.50;0.50;;;;;;;28.61;45.04;101735.88;4982270;28;20026;-74
2021/09/22 09:16:02;;;;;;;0.40;0.40;;;;;;;29.39;44.13;101755.28;4999546;28;20078;-74
2021/09/22 09:18:31;;;;;;;0.40;0.40;;;;;;;30.11;42.09;101735.28;4997378;28;20038;-75
2021/09/22 09:21:17;;;;;;;0.40;0.40;;;;;;;31.05;40.79;101740.03;5000505;28;20026;-74
2021/09/22 09:23:57;;;;;;;0.65;0.43;;;;;;;31.70;40.39;101745.97;4980718;28;20049;-75
2021/09/22 09:29:14;;;;;;;0.30;0.30;;;;;;;32.85;36.96;101742.66;4990889;28;20034;-74
2021/09/22 09:31:40;;;;;;;0.65;0.65;;;;;;;33.21;36.36;101743.03;5002106;28;20141;-74
2021/09/22 09:34:05;;;;;;;0.70;0.70;;;;;;;33.65;35.30;101740.56;4951137;28;20038;-75
2021/09/22 09:36:57;;;;;;;;;;;;;;;;;;;;;
2021/09/22 09:39:34;;;;;;;0.30;0.30;;;;;;;34.71;33.99;101744.38;4980106;28;20082;-75
2021/09/22 09:42:14;;;;;;;0.30;0.30;;;;;;;35.16;33.56;101735.53;4968693;28;20081;-73
2021/09/22 09:44:53;;;;;;;0.60;0.45;;;;;;;35.67;32.96;101729.84;4970453;28;20057;-75
2021/09/22 09:47:22;;;;;;;0.47;0.30;;;;;;;36.10;32.10;101724.09;4979657;28;20081;-76
2021/09/22 09:49:49;;;;;;;1.58;0.22;;;;;;;36.65;30.83;101734.00;4984178;28;20039;-75
2021/09/22 09:52:15;;;;;;;0.20;0.20;;;;;;;37.06;30.51;101732.53;4988356;28;20062;-75
2021/09/22 09:54:52;;;;;;;0.40;0.40;;;;;;;37.53;28.78;101730.13;4963502;28;20033;-75
2021/09/22 09:57:20;;;;;;;0.15;0.15;;;;;;;37.69;28.25;101730.34;4973605;28;20030;-74
2021/09/22 09:59:51;;;;;;;2.92;0.90;;;;;;;37.50;25.24;101733.78;5000800;28;20034;-74
2021/09/22 10:02:32;;;;;;;1.45;0.30;;;;;;;37.69;25.50;101730.34;4982770;28;20022;-75
2021/09/22 10:05:00;;;;;;;0.70;0.50;;;;;;;37.75;25.53;101721.34;4996672;28;20515;-74
2021/09/22 10:07:35;;;;;;;0.40;0.30;;;;;;;38.02;25.47;101725.09;4981327;28;20035;-74
2021/09/22 10:10:01;;;;;;;0.45;0.32;;;;;;;38.40;24.26;101716.47;4973936;28;20081;-75
2021/09/22 10:12:29;;;;;;;0.55;0.50;;;;;;;38.65;23.84;101718.19;4991001;28;20058;-74
2021/09/22 10:15:00;;;;;;;0.22;0.20;;;;;;;39.12;24.58;101722.41;4969314;28;20107;-75
2021/09/22 10:17:30;;;;;;;0.75;0.60;;;;;;;39.28;22.42;101722.53;4982187;28;20076;-75
2021/09/22 10:20:00;;;;;;;0.30;0.30;;;;;;;39.15;22.90;101721.53;4992365;28;20027;-75
2021/09/22 10:22:28;;;;;;;1.00;0.80;;;;;;;39.34;21.02;101726.53;4981120;28;20019;-74
2021/09/22 10:25:02;;;;;;;1.42;1.33;;;;;;;38.98;20.46;101714.88;4974417;28;20026;-73
2021/09/22 10:27:36;;;;;;;0.50;0.50;;;;;;;38.81;21.18;101719.63;4980589;28;20034;-76
2021/09/22 10:30:11;;;;;;;0.85;0.57;;;;;;;38.72;21.11;101709.53;4975600;28;20042;-74
2021/09/22 10:32:44;;;;;;;;;;;;;;;39.22;20.06;101722.22;4966191;28;20097;-75
2021/09/22 10:35:28;;;;;;;0.57;0.40;;;;;;;39.27;20.98;101715.22;4991643;28;20758;-75
2021/09/22 10:38:19;;;;;;;0.68;0.68;;;;;;;39.41;20.26;101709.25;5001807;28;20026;-76
2021/09/22 10:41:00;;;;;;;0.65;0.60;;;;;;;39.31;19.31;101710.22;4975214;28;20026;-76
2021/09/22 10:43:40;;;;;;;0.65;0.35;;;;;;;39.60;20.51;101706.88;4982678;28;20043;-74
2021/09/22 10:46:05;;;;;;;0.25;0.20;;;;;;;40.26;20.16;101704.31;4997545;28;20114;-74
2021/09/22 10:48:37;;;;;;;0.30;0.30;;;;;;;41.05;19.95;101713.97;4985200;28;20030;-74
2021/09/22 10:51:05;;;;;;;0.77;0.60;;;;;;;41.86;18.88;101715.09;5000502;28;20030;-75
2021/09/22 10:53:36;;;;;;;0.70;0.45;;;;;;;42.14;17.93;101711.84;4983658;28;20042;-74
2021/09/22 10:56:12;;;;;;;0.30;0.30;;;;;;;42.53;18.58;101710.66;5003333;28;20021;-75
2021/09/22 10:58:53;;;;;;;0.60;0.52;;;;;;;42.98;17.95;101696.47;5000938;28;20022;-75
2021/09/22 11:01:31;;;;;;;0.50;0.38;;;;;;;43.35;17.73;101702.63;4991252;28;20026;-75
2021/09/22 11:04:12;;;;;;;0.40;0.38;;;;;;;43.41;17.14;101683.50;4981546;28;20045;-75
2021/09/22 11:06:47;;;;;;;1.35;0.65;;;;;;;43.74;16.50;101686.03;4983982;28;20488;-74
2021/09/22 11:09:22;;;;;;;3.58;0.45;;;;;;;43.49;15.99;101682.00;4992756;28;20038;-75
2021/09/22 11:11:56;;;;;;;0.57;0.57;;;;;;;43.13;15.86;101671.75;5001543;28;20042;-74
2021/09/22 11:14:29;;;;;;;0.50;0.30;;;;;;;43.19;16.51;101669.88;4977977;28;20022;-74
2021/09/22 11:16:59;;;;;;;1.60;0.30;;;;;;;43.83;16.86;101680.34;4967983;28;20528;-75
2021/09/22 11:19:25;;;;;;;0.43;0.20;;;;;;;44.60;16.64;101671.16;4998232;28;20085;-75
2021/09/22 11:21:51;;;;;;;1.17;0.55;;;;;;;45.10;15.44;101661.69;5000301;28;20084;-75
2021/09/22 11:24:22;;;;;;;0.73;0.50;;;;;;;45.27;15.11;101659.28;4981079;28;20034;-75
2021/09/22 11:27:02;;;;;;;2.15;0.57;;;;;;;45.24;14.56;101661.06;4982528;28;20033;-74
2021/09/22 11:29:35;;;;;;;0.85;0.50;;;;;;;44.46;13.83;101665.97;4978597;28;20117;-74
2021/09/22 11:32:29;;;;;;;0.50;0.50;;;;;;;42.87;14.70;101660.25;4996319;28;20392;-73
2021/09/22 11:34:59;;;;;;;0.93;0.80;;;;;;;40.60;15.88;101654.47;4982450;28;20141;-75
2021/09/22 11:37:41;;;;;;;1.20;0.70;;;;;;;38.01;17.92;101655.00;4991802;28;20036;-74
2021/09/22 11:40:40;;;;;;;5.32;1.00;;;;;;;35.59;20.17;101644.53;4986761;28;20066;-74
2021/09/22 11:43:11;;;;;;;1.60;0.77;;;;;;;34.63;21.59;101628.31;4982516;28;20104;-73
2021/09/22 11:45:51;;;;;;;0.93;0.63;;;;;;;33.88;22.11;101627.69;5001394;28;20480;-73
2021/09/22 11:48:28;;;;;;;1.70;0.85;;;;;;;33.09;23.28;101632.81;4980840;28;20046;-74
2021/09/22 11:50:53;;;;;;;0.73;0.70;;;;;;;32.23;24.42;101612.97;5004596;28;20448;-74
2021/09/22 11:53:21;;;;;;;0.93;0.60;;;;;;;31.64;25.47;101621.09;4979808;28;20022;-74
2021/09/22 11:55:49;;;;;;;0.73;0.68;;;;;;;30.79;26.36;101608.81;4984079;28;20034;-73
2021/09/22 11:58:31;;;;;;;4.03;0.70;;;;;;;30.00;27.16;101612.16;4972537;28;20045;-74
2021/09/22 12:01:08;;;;;;;0.50;0.50;;;;;;;29.30;27.62;101600.53;4992543;28;20054;-73
2021/09/22 12:03:38;;;;;;;0.93;0.80;;;;;;;28.77;28.44;101605.63;4974001;28;20435;-72
2021/09/22 12:06:14;;;;;;;3.13;0.77;;;;;;;28.26;29.86;101595.03;4992479;28;20034;-73
2021/09/22 12:08:51;;;;;;;0.88;0.68;;;;;;;27.97;30.60;101597.84;4999498;28;20030;-74
2021/09/22 12:11:20;;;;;;;1.10;0.80;;;;;;;27.60;31.25;101583.88;4963715;28;20034;-73
2021/09/22 12:13:48;;;;;;;3.88;0.45;;;;;;;27.34;31.73;101587.09;4966125;28;20034;-73
2021/09/22 12:16:19;;;;;;;1.02;0.70;;;;;;;27.22;32.07;101590.69;4980541;28;20115;-74
2021/09/22 12:18:57;;;;;;;0.90;0.70;;;;;;;27.00;32.31;101578.78;4981551;28;20440;-74
2021/09/22 12:21:24;;;;;;;1.35;0.70;;;;;;;27.58;33.80;101597.44;4984492;28;20026;-73
2021/09/22 12:23:50;;;;;;;1.33;0.85;;;;;;;29.94;32.28;101577.81;4982916;28;20036;-74
2021/09/22 12:26:21;;;;;;;10.82;1.17;;;;;;;31.73;27.31;101584.88;4985153;28;20109;-74
2021/09/22 12:29:07;;;;;;;3.50;1.20;;;;;;;31.19;26.66;101588.91;5001687;28;20030;-73
2021/09/22 12:31:38;;;;;;;3.00;1.20;;;;;;;30.13;28.36;101579.78;4992292;28;20022;-74
2021/09/22 12:34:15;;;;;;;0.60;0.60;;;;;;;29.50;28.29;101578.06;4997531;28;20038;-74
2021/09/22 12:36:50;;;;;;;1.08;0.85;;;;;;;28.81;30.19;101582.06;4985649;28;20028;-74
2021/09/22 12:39:23;;;;;;;2.72;1.02;;;;;;;28.15;31.42;101560.97;5002192;28;20040;-74
2021/09/22 12:42:07;;;;;;;1.40;0.85;;;;;;;28.96;32.22;101569.13;4982652;28;20062;-75
2021/09/22 12:44:58;;;;;;;1.42;1.00;;;;;;;31.48;29.24;101567.53;4992697;28;20026;-74
2021/09/22 12:47:34;;;;;;;1.25;1.10;;;;;;;33.11;26.45;101570.91;5001279;28;20046;-75